Time;durP1;ratioP1;P1;durP2;ratioP2;P2;SDS_P1;SDS_P2;PMS_P1;PMS_P2;Temp;Humidity;BMP_temperature;BMP_pressure;BME280_temperature;BME280_humidity;BME280_pressure;Samples;Min_cycle;Max_cycle;Signal;HPM_P1;HPM_P2
2022/12/01 00:00:21;;;;;;;20.20;10.93;;;;;;;6.09;100.00;99025.84;10424622;28;20044;-83
2022/12/01 00:05:22;;;;;;;25.27;12.73;;;;;;;5.96;100.00;99033.38;10429428;28;20520;-80
2022/12/01 00:10:24;;;;;;;22.80;10.52;;;;;;;6.20;100.00;99024.69;10430150;28;20041;-83
2022/12/01 00:15:28;;;;;;;22.30;11.60;;;;;;;5.95;100.00;99023.78;10412674;28;20820;-83
2022/12/01 00:20:29;;;;;;;19.10;10.10;;;;;;;5.90;100.00;99020.31;10431875;28;20045;-83
2022/12/01 00:25:30;;;;;;;21.67;12.18;;;;;;;5.88;100.00;99030.44;10401113;28;20103;-83
2022/12/01 00:30:32;;;;;;;21.08;10.30;;;;;;;5.96;100.00;99033.38;10432248;28;20477;-84
2022/12/01 00:35:34;;;;;;;24.73;11.50;;;;;;;6.05;100.00;99030.13;10442955;28;20045;-79
2022/12/01 00:40:35;;;;;;;23.52;12.25;;;;;;;5.99;100.00;99026.69;10430935;28;20045;-81
2022/12/01 00:45:37;;;;;;;25.40;12.07;;;;;;;6.24;100.00;99028.41;10421997;28;20043;-83
2022/12/01 00:50:38;;;;;;;24.05;11.75;;;;;;;5.73;100.00;99033.94;10430970;28;20049;-80
2022/12/01 00:55:39;;;;;;;20.90;11.32;;;;;;;6.17;100.00;99035.91;10428737;28;20122;-83
2022/12/01 01:00:41;;;;;;;24.38;12.48;;;;;;;6.14;100.00;99034.59;10409859;28;20056;-82
2022/12/01 01:05:42;;;;;;;24.08;11.77;;;;;;;6.28;100.00;99037.44;10426266;28;20065;-83
2022/12/01 01:10:46;;;;;;;23.05;12.43;;;;;;;6.04;100.00;99047.19;10435051;28;20049;-84
2022/12/01 01:15:59;;;;;;;22.80;11.23;;;;;;;6.22;100.00;99042.03;10414895;28;20033;-82
2022/12/01 01:21:06;;;;;;;22.37;11.93;;;;;;;6.49;100.00;99033.59;10428056;28;20037;-82
2022/12/01 01:26:14;;;;;;;22.73;11.57;;;;;;;6.52;100.00;99043.69;10424399;28;20157;-81
2022/12/01 01:31:19;;;;;;;24.33;11.70;;;;;;;6.51;100.00;99043.97;10431553;28;20045;-85
2022/12/01 01:36:19;;;;;;;21.38;11.73;;;;;;;6.43;100.00;99050.69;10446273;28;20029;-82
2022/12/01 01:41:21;;;;;;;25.42;12.90;;;;;;;6.43;100.00;99047.22;10457653;28;20115;-85
2022/12/01 01:46:30;;;;;;;22.05;11.80;;;;;;;6.45;100.00;99045.06;10437225;28;20045;-87
2022/12/01 01:51:36;;;;;;;23.83;11.95;;;;;;;6.49;100.00;99048.78;10450371;28;20049;-86
2022/12/01 01:56:37;;;;;;;27.45;13.35;;;;;;;6.30;100.00;99045.16;10456543;28;20023;-82
2022/12/01 02:01:38;;;;;;;22.90;11.98;;;;;;;6.48;100.00;99044.50;10570739;22;20038;-79
2022/12/01 02:06:39;;;;;;;25.67;12.70;;;;;;;6.51;100.00;99043.97;10437748;28;20314;-82
2022/12/01 02:12:12;;;;;;;24.88;11.90;;;;;;;6.40;100.00;99042.44;10465960;22;20045;-90
2022/12/01 02:17:21;;;;;;;26.35;13.00;;;;;;;6.73;100.00;99033.66;10435847;28;20025;-88
2022/12/01 02:22:34;;;;;;;25.00;12.93;;;;;;;7.01;100.00;99036.66;10411365;28;20038;-89
2022/12/01 02:27:56;;;;;;;26.90;13.18;;;;;;;6.99;100.00;99034.25;10421635;28;20068;-84
2022/12/01 02:33:24;;;;;;;22.25;12.05;;;;;;;6.80;100.00;99028.81;10416706;28;20085;-84
2022/12/01 02:38:33;;;;;;;24.95;12.00;;;;;;;6.80;100.00;99033.38;10389383;28;20046;-83
2022/12/01 02:43:44;;;;;;;23.80;12.95;;;;;;;6.64;100.00;99038.00;10431061;28;20044;-81
2022/12/01 02:48:50;;;;;;;25.52;13.20;;;;;;;6.83;100.00;99036.25;10445720;28;20033;-81
2022/12/01 02:53:52;;;;;;;24.40;11.85;;;;;;;6.67;100.00;99029.44;10445192;28;20029;-82
2022/12/01 02:58:52;;;;;;;25.02;12.43;;;;;;;6.06;100.00;99021.06;10397430;28;20061;-83
2022/12/01 03:04:13;;;;;;;23.48;11.52;;;;;;;6.50;100.00;99026.38;10400870;28;20080;-82
2022/12/01 03:09:51;;;;;;;25.75;12.57;;;;;;;6.45;100.00;99021.09;10388544;28;20054;-81
2022/12/01 03:15:11;;;;;;;27.08;12.75;;;;;;;6.46;100.00;99012.78;10399188;28;20160;-85
2022/12/01 03:20:46;;;;;;;24.73;12.68;;;;;;;6.53;100.00;99007.16;10388256;28;20125;-84
2022/12/01 03:25:51;;;;;;;22.65;11.77;;;;;;;6.55;100.00;99005.78;10405751;28;20045;-85
2022/12/01 03:30:55;;;;;;;25.45;13.30;;;;;;;6.50;100.00;99013.06;10388640;28;21005;-83
2022/12/01 03:36:05;;;;;;;24.27;11.75;;;;;;;6.69;100.00;99010.50;10401885;28;20034;-85
2022/12/01 03:41:16;;;;;;;23.40;12.18;;;;;;;6.75;100.00;99006.72;10399423;28;20124;-84
2022/12/01 03:46:44;;;;;;;26.83;13.30;;;;;;;6.78;100.00;99004.28;10414978;28;20038;-82
2022/12/01 03:51:48;;;;;;;24.30;12.65;;;;;;;6.78;100.00;99001.63;10409573;28;20084;-85
2022/12/01 03:56:58;;;;;;;23.45;12.32;;;;;;;6.64;100.00;99002.53;10434650;28;20120;-82
2022/12/01 04:02:00;;;;;;;23.58;12.23;;;;;;;6.61;100.00;99008.44;10429186;28;20022;-84
2022/12/01 04:07:04;;;;;;;25.95;12.50;;;;;;;6.63;100.00;99016.94;10437234;28;20037;-85
2022/12/01 04:17:25;;;;;;;28.55;13.48;;;;;;;6.71;100.00;99011.81;10419151;28;20501;-81
2022/12/01 04:22:26;;;;;;;23.88;12.63;;;;;;;6.73;100.00;99009.66;10403368;28;20599;-83
2022/12/01 04:27:30;;;;;;;24.65;13.13;;;;;;;6.59;100.00;99007.94;10387591;28;20200;-82
2022/12/01 04:32:31;;;;;;;24.10;11.80;;;;;;;6.50;100.00;99002.38;10406801;28;20128;-84
2022/12/01 04:37:35;;;;;;;24.83;12.20;;;;;;;6.55;100.00;99005.78;10387013;28;20052;-83
2022/12/01 04:42:37;;;;;;;23.10;12.32;;;;;;;6.44;100.00;99006.97;10392488;28;20079;-86
2022/12/01 04:47:39;;;;;;;22.70;12.75;;;;;;;6.44;100.00;99003.50;10398053;28;20068;-85
2022/12/01 04:52:41;;;;;;;27.02;13.52;;;;;;;6.60;100.00;99002.31;10385048;28;20103;-83
2022/12/01 04:57:43;;;;;;;25.70;13.07;;;;;;;6.65;100.00;99002.25;10398135;28;20108;-83
2022/12/01 05:02:44;;;;;;;24.83;13.27;;;;;;;6.57;100.00;99008.97;10392067;28;20041;-81
2022/12/01 05:07:45;;;;;;;23.52;12.38;;;;;;;6.20;100.00;99011.38;10396640;28;20561;-79
2022/12/01 05:12:49;;;;;;;25.67;13.63;;;;;;;6.33;100.00;99015.31;10389338;28;20069;-82
2022/12/01 05:17:50;;;;;;;23.40;11.68;;;;;;;6.20;100.00;99019.38;10398637;28;20045;-81
2022/12/01 05:22:51;;;;;;;22.33;12.13;;;;;;;6.10;100.00;99016.75;10424115;28;20030;-86
2022/12/01 05:27:52;;;;;;;25.52;12.95;;;;;;;6.16;100.00;99015.66;10411617;28;20412;-83
2022/12/01 05:32:53;;;;;;;26.73;13.05;;;;;;;6.22;100.00;99012.72;10407573;28;20056;-80
2022/12/01 05:37:55;;;;;;;22.60;11.88;;;;;;;5.93;100.00;99012.56;10417380;28;20041;-83
2022/12/01 05:42:57;;;;;;;24.88;12.68;;;;;;;6.16;100.00;99005.81;10391181;28;20096;-82
2022/12/01 05:48:00;;;;;;;26.10;12.73;;;;;;;5.81;100.00;99004.09;10395117;28;20042;-83
2022/12/01 05:53:05;;;;;;;22.80;11.48;;;;;;;5.34;100.00;98994.69;10429907;28;20037;-84
2022/12/01 05:58:08;;;;;;;22.10;11.85;;;;;;;5.69;100.00;98996.44;10444360;28;20033;-82
2022/12/01 06:03:10;;;;;;;21.83;11.70;;;;;;;5.80;100.00;99007.81;10451007;28;20021;-81
2022/12/01 06:08:12;;;;;;;22.42;11.07;;;;;;;5.99;100.00;99008.03;10451812;28;20046;-82
2022/12/01 06:13:14;;;;;;;24.88;11.85;;;;;;;6.28;100.00;99003.59;10484334;28;20040;-84
2022/12/01 06:18:16;;;;;;;24.50;11.35;;;;;;;6.20;100.00;99019.38;10503732;28;20055;-84
2022/12/01 06:23:16;;;;;;;24.00;12.60;;;;;;;5.89;100.00;99014.19;10506754;28;20041;-82
2022/12/01 06:28:17;;;;;;;25.40;13.20;;;;;;;5.97;100.00;99020.84;10498544;28;20067;-82
2022/12/01 06:33:17;;;;;;;22.90;12.02;;;;;;;5.71;100.00;99020.91;10523120;28;20029;-79
2022/12/01 06:38:21;;;;;;;22.40;12.20;;;;;;;5.87;100.00;99018.19;10504670;28;20036;-79
2022/12/01 06:43:22;;;;;;;24.60;11.90;;;;;;;6.08;100.00;99027.69;10528165;28;20039;-80
2022/12/01 06:48:24;;;;;;;20.90;11.23;;;;;;;5.99;100.00;99035.47;10519410;28;20104;-81
2022/12/01 06:53:27;;;;;;;24.30;12.30;;;;;;;6.00;100.00;99033.59;10488980;28;20403;-88
2022/12/01 06:58:30;;;;;;;24.98;11.68;;;;;;;5.92;100.00;99023.50;10506684;28;20059;-81
2022/12/01 07:03:31;;;;;;;;;;;;;;;5.89;100.00;99024.03;10568726;22;20033;-78
2022/12/01 07:08:32;;;;;;;22.42;11.70;;;;;;;5.95;100.00;99036.31;10494701;28;19909;-84
2022/12/01 07:13:35;;;;;;;22.40;11.30;;;;;;;6.22;100.00;99033.25;10484222;28;20172;-78
2022/12/01 07:18:39;;;;;;;22.08;11.55;;;;;;;6.06;100.00;99034.38;10571640;22;20036;-82
2022/12/01 07:23:40;;;;;;;22.52;11.43;;;;;;;6.13;100.00;99034.88;10393630;28;20042;-81
2022/12/01 07:28:41;;;;;;;25.48;12.35;;;;;;;6.03;100.00;99034.91;10385673;28;20042;-80
2022/12/01 07:33:43;;;;;;;25.30;13.45;;;;;;;6.24;100.00;99039.88;10370626;28;20389;-83
2022/12/01 07:38:43;;;;;;;25.13;12.55;;;;;;;6.17;100.00;99036.72;10366079;28;20050;-83
2022/12/01 07:43:46;;;;;;;24.55;12.73;;;;;;;6.18;100.00;99043.63;10372432;28;20152;-84
2022/12/01 07:48:47;;;;;;;23.87;11.90;;;;;;;6.27;100.00;99049.19;10371474;28;20042;-82
2022/12/01 07:53:50;;;;;;;25.63;12.63;;;;;;;6.44;100.00;99043.50;10373836;28;20053;-84
2022/12/01 07:58:53;;;;;;;24.87;13.13;;;;;;;6.42;100.00;99043.78;10374633;28;20038;-83
2022/12/01 08:03:59;;;;;;;24.58;13.32;;;;;;;6.32;100.00;99037.72;10349991;28;20046;-83
2022/12/01 08:09:03;;;;;;;23.17;12.27;;;;;;;6.66;100.00;99041.19;10346396;28;20249;-81
2022/12/01 08:14:03;;;;;;;30.30;14.85;;;;;;;6.99;100.00;99033.47;10344528;28;20455;-83
2022/12/01 08:19:04;;;;;;;27.58;13.85;;;;;;;6.96;100.00;99047.38;10345806;28;20457;-82
2022/12/01 08:24:06;;;;;;;24.48;13.10;;;;;;;6.81;100.00;99041.09;10368138;28;20042;-83
2022/12/01 08:29:08;;;;;;;25.70;13.30;;;;;;;6.98;100.00;99040.69;10359812;28;20325;-84
2022/12/01 08:34:08;;;;;;;25.98;12.75;;;;;;;7.10;100.00;99045.63;10369799;28;20133;-83
2022/12/01 08:39:10;;;;;;;23.83;12.65;;;;;;;7.16;100.00;99033.84;10371277;28;20065;-81
2022/12/01 08:44:11;;;;;;;24.25;12.73;;;;;;;7.07;100.00;99040.88;10363926;28;20077;-81
2022/12/01 08:49:13;;;;;;;29.70;13.13;;;;;;;5.76;100.00;99049.41;10360666;28;20058;-84
2022/12/01 08:54:15;;;;;;;27.55;14.02;;;;;;;5.43;100.00;99045.50;10390319;28;20045;-84
2022/12/01 08:59:15;;;;;;;25.92;12.45;;;;;;;5.34;100.00;99047.91;10383917;28;20076;-82
2022/12/01 09:04:18;;;;;;;27.48;14.77;;;;;;;5.45;100.00;99048.69;10385188;28;20037;-80
2022/12/01 09:09:28;;;;;;;28.27;13.57;;;;;;;5.72;100.00;99059.00;10405758;28;20038;-82
2022/12/01 09:14:28;;;;;;;27.10;14.18;;;;;;;6.37;100.00;99061.66;10401152;28;20034;-80
2022/12/01 09:19:30;;;;;;;24.05;12.05;;;;;;;6.78;100.00;99065.66;10398966;28;20078;-85
2022/12/01 09:24:32;;;;;;;25.17;13.05;;;;;;;6.76;100.00;99070.44;10364670;28;20141;-84
2022/12/01 09:29:34;;;;;;;26.10;12.68;;;;;;;6.91;100.00;99064.22;10369663;28;20037;-87
2022/12/01 09:34:35;;;;;;;28.83;14.20;;;;;;;6.91;100.00;99063.41;10375133;28;20069;-82
2022/12/01 09:39:36;;;;;;;26.20;13.05;;;;;;;6.55;100.00;99061.81;10383164;28;20045;-81
2022/12/01 09:44:46;;;;;;;28.55;13.15;;;;;;;6.76;100.00;99056.31;10363495;28;20052;-83
2022/12/01 09:50:05;;;;;;;25.42;12.48;;;;;;;7.10;100.00;99050.97;10365239;28;20045;-83
2022/12/01 09:55:13;;;;;;;27.30;13.93;;;;;;;6.84;100.00;99051.19;10371477;28;20042;-78
2022/12/01 10:00:27;;;;;;;23.73;13.43;;;;;;;7.20;100.00;99044.75;10361234;28;20042;-81
2022/12/01 10:05:30;;;;;;;;;;;;;;;7.12;100.00;99046.94;10388362;28;20087;-82
2022/12/01 10:10:53;;;;;;;24.67;12.88;;;;;;;7.51;100.00;99026.56;10396298;28;19936;-79
2022/12/01 10:16:07;;;;;;;;;;;;;;;7.51;100.00;99024.69;10402149;28;20041;-81
2022/12/01 10:21:26;;;;;;;24.17;13.38;;;;;;;7.40;100.00;99018.63;10414272;28;19933;-80
2022/12/01 10:27:20;;;;;;;23.23;12.38;;;;;;;7.48;100.00;99014.53;10683752;22;20056;-82
2022/12/01 10:32:46;;;;;;;24.15;13.20;;;;;;;8.19;100.00;99013.66;10339785;28;20057;-82
2022/12/01 10:38:12;;;;;;;23.33;11.77;;;;;;;7.87;100.00;99000.22;10427145;28;20071;-82
2022/12/01 10:43:13;;;;;;;22.63;12.38;;;;;;;8.50;100.00;98999.88;10473010;28;20044;-80
2022/12/01 10:48:19;;;;;;;21.55;12.30;;;;;;;7.97;100.00;98998.19;10492221;28;20056;-82
2022/12/01 10:53:28;;;;;;;19.38;11.40;;;;;;;8.04;100.00;98992.47;10487238;28;20025;-80
2022/12/01 10:58:32;;;;;;;20.50;12.02;;;;;;;7.85;100.00;99000.47;10484968;28;20085;-81
2022/12/01 11:03:37;;;;;;;22.77;11.90;;;;;;;8.15;100.00;98993.94;10489092;28;20055;-77
2022/12/01 11:08:51;;;;;;;21.20;11.82;;;;;;;8.08;100.00;98987.38;10487326;28;20025;-81
2022/12/01 11:13:52;;;;;;;;;;;;;;;8.06;100.00;98986.88;10486827;28;20024;-77
2022/12/01 11:19:08;;;;;;;20.65;11.98;;;;;;;8.15;100.00;98985.94;10479209;28;19921;-82
2022/12/01 11:24:38;;;;;;;20.80;12.05;;;;;;;8.48;100.00;98983.31;10411451;28;20049;-84
2022/12/01 11:29:41;;;;;;;20.48;11.65;;;;;;;8.37;99.79;98976.53;10404998;28;20053;-82
2022/12/01 11:34:49;;;;;;;22.48;12.23;;;;;;;8.65;100.00;98969.41;10418294;28;20499;-81
2022/12/01 11:39:51;;;;;;;21.60;11.73;;;;;;;8.46;99.17;98966.78;10438729;28;20037;-80
2022/12/01 11:45:17;;;;;;;20.83;11.75;;;;;;;8.52;100.00;98965.63;10427394;28;20124;-82
2022/12/01 11:50:28;;;;;;;22.20;12.05;;;;;;;9.25;99.45;98956.03;10408631;28;20125;-85
2022/12/01 11:55:30;;;;;;;20.48;12.40;;;;;;;9.04;98.19;98956.41;10406447;28;20401;-82
2022/12/01 12:00:49;;;;;;;20.15;11.65;;;;;;;8.93;96.71;98949.63;10400674;28;20041;-84
2022/12/01 12:06:08;;;;;;;19.85;11.43;;;;;;;8.97;100.00;98949.88;10406399;28;20050;-77
2022/12/01 12:11:17;;;;;;;22.05;11.68;;;;;;;9.19;96.06;98943.81;10409957;28;20053;-83
2022/12/01 12:17:06;;;;;;;19.38;10.90;;;;;;;8.86;98.12;98940.41;10431137;28;20037;-82
2022/12/01 12:22:23;;;;;;;20.48;10.93;;;;;;;8.77;97.84;98932.25;10421835;28;20045;-78
2022/12/01 12:27:25;;;;;;;19.42;11.25;;;;;;;8.66;98.83;98933.53;10447246;28;20041;-79
2022/12/01 12:33:03;;;;;;;19.13;11.98;;;;;;;9.08;99.42;98935.19;10418907;28;20075;-84
2022/12/01 12:38:25;;;;;;;18.77;10.68;;;;;;;9.60;100.00;87435.75;10422234;28;20229;-81
2022/12/01 12:43:40;;;;;;;15.70;10.45;;;;;;;-144.32;100.00;68061.97;10444687;28;20072;-85
2022/12/01 12:49:08;;;;;;;16.50;9.38;;;;;;;-144.32;100.00;68061.97;10432233;28;20037;-85
2022/12/01 12:54:46;;;;;;;16.13;9.65;;;;;;;-144.32;100.00;68061.97;10419925;28;20046;-85
2022/12/01 12:59:54;;;;;;;17.50;9.88;;;;;;;-144.32;100.00;68061.97;10400677;28;20410;-82
2022/12/01 13:05:16;;;;;;;18.55;9.43;;;;;;;-144.32;100.00;68061.97;10397923;28;20072;-81
2022/12/01 13:10:42;;;;;;;17.42;10.75;;;;;;;-144.32;100.00;68061.97;10400825;28;20051;-83
2022/12/01 13:15:44;;;;;;;15.43;9.77;;;;;;;-144.32;100.00;68061.97;10405523;28;20052;-82
2022/12/01 13:20:46;;;;;;;17.85;9.68;;;;;;;-144.32;100.00;68061.97;10402352;28;20037;-81
2022/12/01 13:25:52;;;;;;;16.58;9.75;;;;;;;-144.32;100.00;68061.97;10399405;28;20132;-81
2022/12/01 13:31:13;;;;;;;16.27;9.85;;;;;;;-144.32;100.00;68061.97;10400915;28;20053;-81
2022/12/01 13:36:14;;;;;;;16.42;9.48;;;;;;;-144.32;100.00;68061.97;10404331;28;20609;-83
2022/12/01 13:41:17;;;;;;;16.13;10.05;;;;;;;-144.32;100.00;68061.97;10411343;28;20037;-81
2022/12/01 13:46:29;;;;;;;20.77;11.60;;;;;;;-144.32;100.00;68061.97;10411045;28;20052;-81
2022/12/01 13:52:08;;;;;;;21.65;11.55;;;;;;;-144.32;100.00;68061.97;10407716;28;20057;-82
2022/12/01 13:57:24;;;;;;;21.45;13.95;;;;;;;-144.32;100.00;68061.97;10430876;28;20133;-82
2022/12/01 14:02:32;;;;;;;22.65;12.75;;;;;;;-144.32;100.00;68061.97;10405131;28;20060;-81
2022/12/01 14:07:37;;;;;;;21.77;11.45;;;;;;;-144.32;100.00;68061.97;10377231;28;20132;-80
2022/12/01 14:12:43;;;;;;;22.25;12.00;;;;;;;-144.32;100.00;68061.97;10403115;28;20140;-81
2022/12/01 14:17:45;;;;;;;21.70;12.45;;;;;;;-144.32;100.00;68061.97;10401990;28;20126;-81
2022/12/01 14:23:01;;;;;;;22.42;12.02;;;;;;;-144.32;100.00;68061.97;10413696;28;20037;-82
2022/12/01 14:28:04;;;;;;;22.13;12.13;;;;;;;-144.32;100.00;68061.97;10408815;28;20045;-81
2022/12/01 14:33:42;;;;;;;24.15;13.25;;;;;;;-144.32;100.00;68061.97;10432753;28;20088;-79
2022/12/01 14:38:58;;;;;;;20.90;11.60;;;;;;;-144.32;100.00;68061.97;10447128;28;20037;-80
2022/12/01 14:44:05;;;;;;;23.60;12.65;;;;;;;-144.32;100.00;68061.97;10455365;28;20056;-80
2022/12/01 14:49:12;;;;;;;22.92;12.82;;;;;;;-144.32;100.00;68061.97;10448823;28;20059;-80
2022/12/01 14:54:21;;;;;;;20.90;12.02;;;;;;;-144.32;100.00;68061.97;10448654;28;20029;-80
2022/12/01 14:59:25;;;;;;;20.35;11.63;;;;;;;-144.32;100.00;68061.97;10441090;28;20064;-80
2022/12/01 15:04:31;;;;;;;18.88;10.77;;;;;;;-144.32;100.00;68061.97;10446385;28;20026;-80
2022/12/01 15:09:33;;;;;;;20.90;11.70;;;;;;;-144.32;100.00;68061.97;10444764;28;20047;-82
2022/12/01 15:14:45;;;;;;;23.00;12.43;;;;;;;-144.32;100.00;68061.97;10421496;28;20101;-83
2022/12/01 15:19:47;;;;;;;20.05;11.35;;;;;;;-144.32;100.00;68061.97;10438488;28;20366;-79
2022/12/01 15:24:51;;;;;;;20.15;11.13;;;;;;;-144.32;100.00;68061.97;10449847;28;20053;-80
2022/12/01 15:29:54;;;;;;;20.07;11.83;;;;;;;-144.32;100.00;68061.97;10455970;28;20049;-81
2022/12/01 15:35:04;;;;;;;19.10;11.57;;;;;;;-144.32;100.00;68061.97;10464652;28;20021;-82
2022/12/01 15:40:09;;;;;;;24.05;13.35;;;;;;;-144.32;100.00;68061.97;10431894;28;20053;-83
2022/12/01 15:45:21;;;;;;;20.52;10.93;;;;;;;-144.32;100.00;68061.97;10456404;28;20052;-82
2022/12/01 15:50:35;;;;;;;22.38;12.38;;;;;;;-144.32;100.00;68061.97;10431019;28;20410;-81
2022/12/01 15:55:37;;;;;;;23.30;12.70;;;;;;;-144.32;100.00;68061.97;10402956;28;20041;-78
2022/12/01 16:00:58;;;;;;;22.73;12.75;;;;;;;-144.32;100.00;68061.97;10403928;28;20029;-82
2022/12/01 16:06:00;;;;;;;24.48;13.40;;;;;;;-144.32;100.00;68061.97;10402273;28;20045;-82
2022/12/01 16:11:21;;;;;;;25.38;14.43;;;;;;;-144.32;100.00;68061.97;10402601;28;20041;-81
2022/12/01 16:16:48;;;;;;;24.85;13.32;;;;;;;-144.32;100.00;68061.97;10405705;28;20053;-81
2022/12/01 16:22:10;;;;;;;24.00;13.70;;;;;;;-144.32;100.00;68061.97;10409427;28;20067;-83
2022/12/01 16:27:30;;;;;;;23.30;12.38;;;;;;;-144.32;100.00;68061.97;10409591;28;20054;-80
2022/12/01 16:32:41;;;;;;;25.95;13.13;;;;;;;-144.32;100.00;68061.97;10444623;28;20049;-81
2022/12/01 16:37:44;;;;;;;22.73;12.95;;;;;;;-144.32;100.00;68061.97;10404823;28;20178;-81
2022/12/01 16:42:48;;;;;;;25.95;13.82;;;;;;;-144.32;100.00;68061.97;10401759;28;20041;-80
2022/12/01 16:47:49;;;;;;;22.17;12.45;;;;;;;-144.32;100.00;68061.97;10402966;28;20498;-80
2022/12/01 16:52:51;;;;;;;22.15;13.02;;;;;;;-144.32;100.00;68061.97;10405927;28;20111;-80
2022/12/01 16:57:54;;;;;;;22.77;13.63;;;;;;;-144.32;100.00;68061.97;10414005;28;20074;-79
2022/12/01 17:02:56;;;;;;;23.92;13.10;;;;;;;-144.32;100.00;68061.97;10404776;28;20556;-78
2022/12/01 17:07:57;;;;;;;26.08;13.63;;;;;;;-144.32;100.00;68061.97;10404977;28;20045;-80
2022/12/01 17:12:59;;;;;;;24.88;14.32;;;;;;;-144.32;100.00;68061.97;10406117;28;20136;-78
2022/12/01 17:18:00;;;;;;;24.90;13.93;;;;;;;-144.32;100.00;68061.97;10413651;28;20133;-78
2022/12/01 17:23:02;;;;;;;24.98;13.52;;;;;;;-144.32;100.00;68061.97;10438773;28;20066;-81
2022/12/01 17:28:08;;;;;;;25.92;13.95;;;;;;;-144.32;100.00;68061.97;10421488;28;20042;-81
2022/12/01 17:33:11;;;;;;;24.50;13.60;;;;;;;-144.32;100.00;68061.97;10417195;28;20037;-79
2022/12/01 17:38:14;;;;;;;23.48;11.93;;;;;;;-144.32;100.00;68061.97;10419443;28;20045;-80
2022/12/01 17:43:15;;;;;;;21.27;12.45;;;;;;;-144.32;100.00;68061.97;10418685;28;20042;-79
2022/12/01 17:48:20;;;;;;;23.98;13.05;;;;;;;-144.32;100.00;68061.97;10411141;28;20040;-81
2022/12/01 17:53:21;;;;;;;24.58;13.05;;;;;;;-144.32;100.00;68061.97;10412309;28;20417;-80
2022/12/01 17:58:30;;;;;;;22.83;12.60;;;;;;;-144.32;100.00;68061.97;10415586;28;20046;-80
2022/12/01 18:03:32;;;;;;;24.38;12.07;;;;;;;-144.32;100.00;68061.97;10427815;28;20285;-80
2022/12/01 18:08:35;;;;;;;21.15;12.50;;;;;;;-144.32;100.00;68061.97;10412611;28;20041;-81
2022/12/01 18:13:37;;;;;;;20.27;12.17;;;;;;;-144.32;100.00;68061.97;10435545;28;20045;-80
2022/12/01 18:18:37;;;;;;;20.27;11.52;;;;;;;-144.32;100.00;68061.97;10444564;28;20815;-80
2022/12/01 18:23:38;;;;;;;22.88;12.10;;;;;;;-144.32;100.00;68061.97;10460286;28;20048;-80
2022/12/01 18:28:42;;;;;;;19.55;11.88;;;;;;;-144.32;100.00;68061.97;10458062;28;20065;-79
2022/12/01 18:33:44;;;;;;;21.27;12.07;;;;;;;-144.32;100.00;68061.97;10453765;28;20110;-78
2022/12/01 18:38:46;;;;;;;23.88;12.20;;;;;;;-144.32;100.00;68061.97;10449796;28;20097;-80
2022/12/01 18:43:46;;;;;;;22.90;12.70;;;;;;;-144.32;100.00;68061.97;10444423;28;20041;-79
2022/12/01 18:48:51;;;;;;;27.63;14.85;;;;;;;-144.32;100.00;68061.97;10421943;28;20077;-82
2022/12/01 18:53:58;;;;;;;16.95;10.73;;;;;;;-144.32;100.00;68061.97;10411652;28;20045;-80
2022/12/01 18:59:02;;;;;;;19.17;11.25;;;;;;;-144.32;100.00;68061.97;10390282;28;20385;-83
2022/12/01 19:04:04;;;;;;;18.60;10.70;;;;;;;-144.32;100.00;68061.97;10393040;28;20033;-81
2022/12/01 19:09:14;;;;;;;16.33;9.63;;;;;;;-144.32;100.00;68061.97;10393101;28;20094;-82
2022/12/01 19:14:18;;;;;;;18.80;10.75;;;;;;;-144.32;100.00;68061.97;10406197;28;20171;-80
2022/12/01 19:19:19;;;;;;;16.40;10.25;;;;;;;-144.32;100.00;68061.97;10400435;28;20775;-80
2022/12/01 19:24:21;;;;;;;18.50;9.98;;;;;;;-144.32;100.00;68061.97;10405301;28;20050;-83
2022/12/01 19:29:23;;;;;;;21.13;10.77;;;;;;;-144.32;100.00;68061.97;10402802;28;20034;-83
2022/12/01 19:34:25;;;;;;;17.77;10.57;;;;;;;-144.32;100.00;68061.97;10376467;28;20045;-81
2022/12/01 19:39:29;;;;;;;19.73;11.32;;;;;;;-144.32;100.00;68061.97;10413100;28;20052;-79
2022/12/01 19:44:51;;;;;;;24.15;10.98;;;;;;;-144.32;100.00;68061.97;10390454;28;20173;-82
2022/12/01 19:49:54;;;;;;;18.45;10.35;;;;;;;-144.32;100.00;68061.97;10402630;28;20183;-79
2022/12/01 19:54:54;;;;;;;19.63;10.50;;;;;;;-144.32;100.00;68061.97;10406960;28;20140;-78
2022/12/01 19:59:56;;;;;;;18.52;9.38;;;;;;;-144.32;100.00;68061.97;10385246;28;20137;-79
2022/12/01 20:04:57;;;;;;;16.05;9.88;;;;;;;-144.32;100.00;68061.97;10407111;28;21416;-80
2022/12/01 20:09:59;;;;;;;17.23;9.52;;;;;;;-144.32;100.00;68061.97;10414768;28;20049;-81
2022/12/01 20:14:59;;;;;;;15.45;9.32;;;;;;;-144.32;100.00;68061.97;10371220;28;20680;-79
2022/12/01 20:20:02;;;;;;;18.00;10.52;;;;;;;-144.32;100.00;68061.97;10402611;28;20106;-78
2022/12/01 20:25:05;;;;;;;22.73;11.60;;;;;;;-144.32;100.00;68061.97;10378591;28;20136;-84
2022/12/01 20:30:09;;;;;;;17.67;9.35;;;;;;;-144.32;100.00;68061.97;10385936;28;20071;-81
2022/12/01 20:35:14;;;;;;;19.10;9.80;;;;;;;-144.32;100.00;68061.97;10415244;28;20042;-84
2022/12/01 20:40:17;;;;;;;16.58;9.65;;;;;;;-144.32;100.00;68061.97;10422821;28;20053;-86
2022/12/01 20:45:18;;;;;;;14.98;8.48;;;;;;;-144.32;100.00;68061.97;10399556;28;20048;-87
2022/12/01 20:50:20;;;;;;;17.65;9.90;;;;;;;-144.32;100.00;68061.97;10411102;28;20053;-89
2022/12/01 20:55:23;;;;;;;18.30;9.60;;;;;;;-144.32;100.00;68061.97;10385496;28;20113;-86
2022/12/01 21:00:24;;;;;;;16.83;9.77;;;;;;;-144.32;100.00;68061.97;10437021;28;20041;-87
2022/12/01 21:05:27;;;;;;;17.02;8.93;;;;;;;-144.32;100.00;68061.97;10883258;22;20067;-88
2022/12/01 21:10:39;;;;;;;16.83;9.65;;;;;;;-144.32;100.00;68061.97;10606261;22;20051;-84
2022/12/01 21:15:54;;;;;;;18.02;10.55;;;;;;;-144.32;100.00;68061.97;11343005;22;20116;-85
2022/12/01 21:32:11;;;;;;;22.67;11.68;;;;;;;-144.32;100.00;68061.97;8655068;22;20101;-86
2022/12/01 21:37:32;;;;;;;19.65;10.30;;;;;;;-144.32;100.00;68061.97;11595454;22;20073;-84
2022/12/01 21:42:35;;;;;;;18.90;10.93;;;;;;;-144.32;100.00;68061.97;10515866;28;20064;-85
2022/12/01 21:47:44;;;;;;;17.77;10.88;;;;;;;-144.32;100.00;68061.97;10532465;28;20071;-84
2022/12/01 21:52:51;;;;;;;20.35;10.98;;;;;;;-144.32;100.00;68061.97;10570588;22;20073;-83
2022/12/01 21:57:53;;;;;;;19.88;11.25;;;;;;;-144.32;100.00;68061.97;10440998;28;20125;-84
2022/12/01 22:03:27;;;;;;;18.60;10.30;;;;;;;-144.32;100.00;68061.97;10440480;28;20138;-87
2022/12/01 22:08:33;;;;;;;19.67;11.33;;;;;;;-144.32;100.00;68061.97;10433540;28;20034;-86
2022/12/01 22:13:47;;;;;;;21.70;12.15;;;;;;;-144.32;100.00;68061.97;10421147;28;20058;-85
2022/12/01 22:18:58;;;;;;;19.23;11.15;;;;;;;-144.32;100.00;68061.97;10409144;28;20054;-87
2022/12/01 22:24:08;;;;;;;21.08;10.88;;;;;;;-144.32;100.00;68061.97;10400987;28;20126;-86
2022/12/01 22:29:39;;;;;;;21.70;11.27;;;;;;;-144.32;100.00;68061.97;10409017;28;20041;-83
2022/12/01 22:34:56;;;;;;;19.87;11.57;;;;;;;-144.32;100.00;68061.97;10409610;28;20031;-82
2022/12/01 22:39:56;;;;;;;18.88;11.00;;;;;;;-144.32;100.00;68061.97;10437822;28;20099;-79
2022/12/01 22:45:18;;;;;;;22.77;11.40;;;;;;;-144.32;100.00;68061.97;10433346;28;20081;-84
2022/12/01 22:50:27;;;;;;;21.35;11.68;;;;;;;-144.32;100.00;68061.97;10403024;28;20053;-83
2022/12/01 22:55:28;;;;;;;21.10;12.25;;;;;;;-144.32;100.00;68061.97;10396283;28;20042;-84
2022/12/01 23:00:29;;;;;;;22.17;11.38;;;;;;;-144.32;100.00;68061.97;10401920;28;20045;-85
2022/12/01 23:10:53;;;;;;;20.25;11.90;;;;;;;-144.32;100.00;68061.97;10491786;22;20140;-86
2022/12/01 23:15:54;;;;;;;22.50;12.77;;;;;;;-144.32;100.00;68061.97;10469037;28;20409;-87
2022/12/01 23:20:57;;;;;;;23.73;12.32;;;;;;;-144.32;100.00;68061.97;10425668;28;20045;-88